Portada
METAR-TAF:

METAR-TAF

Aeroports :

Jacksonville, Florida, Estats Units d'Amèrica

latitud: 30-29-40N, longitud: 081-41-36W, altitud: 9 m

Observació

L'informe es va fer fa 39 minuts, a les 16:56 UTC
Vent 8 kt del Oest/Nord-Oest amb ràfegues de 18 kt
Temperatura 12°C
Humitat 47%
Pressió 1022 hPa
Visibilitat: 16.1 km
Escasses núvols a una alçada de 3000 ft

METAR: KJAX 271656Z 29008G18KT 10SM R08/0100VP6000FT FEW030 12/01 A3017 RMK AO2 SLP217 T01170011

Hora: 12:35 (17:35 UTC)

Pronòstic

L'informe es va fer fa 6 hores i 15 minuts, a les 11:20 UTC
Pronòstic vàlid del 27 a les 12 UTC al 28 a les 12 UTC
Vent 12 kt del Oest/Nord-Oest amb ràfegues de 18 kt
Visibilitat: 10 km
Escasses núvols a una alçada de 3000 ft
Núvols disperses a una alçada de 25000 ft
A partir de les 27 a les 2300 UTC
Vent 3 kt del Oest/Nord-Oest
Visibilitat: 10 km
Cel clar

TAF: KJAX 271120Z 2712/2812 30012G18KT P6SM FEW030 SCT250 FM272300 29003KT P6SM SKC

Observacions i pronòstics meteorològics de més de 4000 aeroports (METAR i TAF).

Les estacions disponibles són els punts grocs i vermells al mapa.

Posi el ratolí al punt desitjat per veure el nom de l'estació.

Feu clic per veure les observacions i els pronòstics meteorològics.

Per canviar el mapa: feu clic els botons verds amb una creu de color negre per apropar; al botó verd amb un guió per allunyar la imatge; o en les fletxes verdes per a mapes adjacents.


METAR-TAF: